Time;durP1;ratioP1;P1;durP2;ratioP2;P2;SDS_P1;SDS_P2;PMS_P1;PMS_P2;Temp;Humidity;BMP_temperature;BMP_pressure;BME280_temperature;BME280_humidity;BME280_pressure;Samples;Min_cycle;Max_cycle;Signal;HPM_P1;HPM_P2
2021/11/08 00:01:16;;;;;;;24.77;7.35;;;5.80;99.90;;;6.70;100.00;100844.59;5056776;28;20024;-78
2021/11/08 00:03:46;;;;;;;39.33;8.07;;;5.80;99.90;;;6.69;100.00;100846.53;5074436;28;20028;-80
2021/11/08 00:06:16;;;;;;;33.65;6.85;;;5.80;99.90;;;6.72;100.00;100848.66;5074720;28;20514;-80
2021/11/08 00:08:42;;;;;;;32.50;8.88;;;5.80;99.90;;;6.69;100.00;100860.44;5080728;28;20040;-78
2021/11/08 00:11:09;;;;;;;27.52;7.30;;;5.80;99.90;;;6.72;100.00;100850.63;5095311;28;20126;-78
2021/11/08 00:13:37;;;;;;;27.38;7.68;;;5.80;99.90;;;6.74;100.00;100856.69;5078182;28;20028;-80
2021/11/08 00:19:06;;;;;;;22.65;7.15;;;5.80;99.90;;;6.71;100.00;100860.91;5080528;28;20514;-78
2021/11/08 00:21:34;;;;;;;33.70;7.57;;;5.80;99.90;;;6.75;100.00;100866.63;5094729;28;20039;-78
2021/11/08 00:24:00;;;;;;;33.45;9.18;;;5.80;99.90;;;6.70;100.00;100866.81;5076034;28;20039;-80
2021/11/08 00:26:27;;;;;;;38.55;8.63;;;5.80;99.90;;;6.69;100.00;100852.09;5094779;28;20035;-79
2021/11/08 00:28:54;;;;;;;27.55;8.23;;;5.80;99.90;;;6.75;100.00;100861.06;5093079;28;20028;-81
2021/11/08 00:31:20;;;;;;;41.58;8.63;;;5.80;99.90;;;6.70;100.00;100864.03;5076751;28;20039;-79
2021/11/08 00:33:46;;;;;;;30.23;8.48;;;5.80;99.90;;;6.70;100.00;100862.06;5076095;28;20137;-79
2021/11/08 00:36:12;;;;;;;21.65;6.95;;;5.70;99.90;;;6.70;100.00;100870.41;5094565;28;20032;-80
2021/11/08 00:38:38;;;;;;;28.65;7.43;;;5.70;99.90;;;6.70;100.00;100864.84;5094641;28;20043;-80
2021/11/08 00:41:04;;;;;;;31.65;8.15;;;5.70;99.90;;;6.72;100.00;100865.31;5076020;28;20472;-80
2021/11/08 00:43:31;;;;;;;25.27;8.18;;;5.80;99.90;;;6.79;100.00;100867.59;5093942;28;20133;-78
2021/11/08 00:45:57;;;;;;;31.13;7.80;;;5.80;99.90;;;6.90;100.00;100866.16;5094754;28;20043;-78
2021/11/08 00:48:29;;;;;;;30.30;7.03;;;5.90;99.90;;;7.01;100.00;100878.53;5094152;28;20460;-79
2021/11/08 00:50:55;;;;;;;27.85;8.60;;;6.00;99.90;;;7.06;100.00;100872.81;5076560;28;20050;-79
2021/11/08 00:53:21;;;;;;;25.95;8.23;;;6.10;99.90;;;7.12;100.00;100882.59;5075562;28;20036;-81
2021/11/08 00:55:51;;;;;;;34.40;9.48;;;6.20;99.90;;;7.23;100.00;100881.09;5094452;28;20428;-79
2021/11/08 00:58:40;;;;;;;34.50;8.30;;;6.20;99.90;;;7.24;100.00;100879.97;5075679;28;20111;-80
2021/11/08 01:01:08;;;;;;;34.92;7.97;;;6.30;99.90;;;7.36;100.00;100882.03;5092787;28;20036;-81
2021/11/08 01:03:43;;;;;;;25.00;9.18;;;6.40;99.90;;;7.40;100.00;100888.59;5093580;28;20130;-80
2021/11/08 01:06:11;;;;;;;34.45;8.20;;;6.40;99.90;;;7.41;100.00;100884.66;5059254;28;20032;-79
2021/11/08 01:08:37;;;;;;;41.65;8.85;;;6.50;99.90;;;7.50;100.00;100885.44;5087758;28;20028;-79
2021/11/08 01:11:04;;;;;;;29.73;8.25;;;6.50;99.90;;;7.54;100.00;100883.66;5054867;28;20033;-80
2021/11/08 01:13:30;;;;;;;24.15;7.75;;;6.50;99.90;;;7.57;100.00;100882.97;5038489;28;20408;-78
2021/11/08 01:15:57;;;;;;;25.73;7.63;;;6.50;99.90;;;7.56;100.00;100888.84;5055412;28;20032;-78
2021/11/08 01:18:25;;;;;;;29.85;8.15;;;6.50;99.90;;;7.58;100.00;100900.47;5086330;28;20036;-79
2021/11/08 01:20:51;;;;;;;22.63;8.15;;;6.60;99.90;;;7.57;100.00;100902.44;5055992;28;20082;-79
2021/11/08 01:23:29;;;;;;;29.08;7.75;;;6.60;99.90;;;7.66;100.00;100899.63;5073311;28;20031;-80
2021/11/08 01:26:05;;;;;;;31.90;8.13;;;6.60;99.90;;;7.65;100.00;100898.78;5039422;28;20116;-81
2021/11/08 01:28:36;;;;;;;31.45;7.75;;;6.70;99.90;;;7.67;100.00;100899.31;5072740;28;20471;-80
2021/11/08 01:31:07;;;;;;;26.58;7.13;;;6.70;99.90;;;7.68;100.00;100900.91;5072484;28;20093;-78
2021/11/08 01:33:36;;;;;;;25.50;9.13;;;6.70;99.90;;;7.73;100.00;100897.16;5054031;28;20081;-79
2021/11/08 01:39:12;;;;;;;22.20;7.75;;;6.70;99.90;;;7.76;100.00;100907.59;5054892;28;20115;-79
2021/11/08 01:41:28;;;;;;;27.55;7.53;;;6.70;99.90;;;7.79;100.00;100904.97;5067830;28;20032;-79
2021/11/08 01:43:54;;;;;;;21.17;7.03;;;6.80;99.90;;;7.82;100.00;100907.09;5053973;28;20455;-78
2021/11/08 01:46:23;;;;;;;26.67;8.65;;;6.80;99.90;;;7.78;100.00;100906.09;5037622;28;20085;-79
2021/11/08 01:48:50;;;;;;;26.30;7.90;;;6.80;99.90;;;7.81;100.00;100908.22;5072127;28;20025;-78
2021/11/08 01:51:17;;;;;;;24.67;6.78;;;6.80;99.90;;;7.87;100.00;100917.19;5071986;28;20036;-79
2021/11/08 01:53:44;;;;;;;33.47;8.45;;;6.80;99.90;;;7.83;100.00;100917.03;5053367;28;20027;-78
2021/11/08 01:56:10;;;;;;;24.38;6.95;;;6.80;99.90;;;7.86;100.00;100913.63;5071587;28;20048;-80
2021/11/08 01:58:37;;;;;;;23.65;7.65;;;6.80;99.90;;;7.89;100.00;100914.91;5071862;28;20097;-80
2021/11/08 02:01:05;;;;;;;25.00;8.45;;;6.80;99.90;;;7.86;100.00;100912.81;5070654;28;20025;-81
2021/11/08 02:03:33;;;;;;;23.02;7.85;;;6.80;99.90;;;7.85;100.00;100920.31;5036797;28;20090;-78
2021/11/08 02:05:58;;;;;;;32.47;8.45;;;6.90;99.90;;;7.90;100.00;100919.31;5037063;28;20475;-80
2021/11/08 02:08:26;;;;;;;24.30;7.07;;;6.90;99.90;;;7.82;100.00;100911.81;5073964;28;20024;-78
2021/11/08 02:10:55;;;;;;;30.38;7.88;;;6.90;99.90;;;7.86;100.00;100912.81;5073579;28;20036;-79
2021/11/08 02:13:23;;;;;;;26.45;7.78;;;6.90;99.90;;;7.89;100.00;100912.94;5091523;28;20042;-78
2021/11/08 02:15:51;;;;;;;23.48;6.85;;;6.90;99.90;;;7.95;100.00;100916.34;5091904;28;20028;-78
2021/11/08 02:18:19;;;;;;;18.58;7.07;;;6.90;99.90;;;7.94;100.00;100909.97;5095301;28;20034;-80
2021/11/08 02:20:48;;;;;;;21.63;6.57;;;6.90;99.90;;;7.95;100.00;100906.06;5077675;28;20024;-81
2021/11/08 02:23:17;;;;;;;27.42;8.80;;;6.90;99.90;;;7.83;100.00;100911.47;5092973;28;20020;-80
2021/11/08 02:25:47;;;;;;;29.75;8.00;;;6.90;99.90;;;7.93;100.00;100911.09;5093388;28;20024;-78
2021/11/08 02:28:13;;;;;;;19.42;7.40;;;6.90;99.90;;;8.01;100.00;100908.63;5079412;28;20089;-81
2021/11/08 02:30:42;;;;;;;21.20;7.22;;;6.90;99.90;;;7.95;100.00;100911.59;5095466;28;20016;-80
2021/11/08 02:33:14;;;;;;;30.98;7.38;;;6.90;99.90;;;7.97;100.00;100914.88;5092295;28;20038;-78
2021/11/08 02:35:40;;;;;;;23.38;7.82;;;6.90;99.90;;;8.00;100.00;100918.94;5094824;28;20107;-82
2021/11/08 02:38:15;;;;;;;32.83;8.00;;;7.00;99.90;;;8.04;100.00;100921.88;5096031;28;20024;-81
2021/11/08 02:40:42;;;;;;;33.25;8.40;;;6.90;99.90;;;8.02;100.00;100911.09;5092919;28;20517;-81
2021/11/08 02:43:08;;;;;;;24.35;7.63;;;7.00;99.90;;;8.04;100.00;100925.47;5073628;28;20028;-80
2021/11/08 02:45:35;;;;;;;30.17;7.70;;;7.00;99.90;;;8.02;100.00;100925.00;5092952;28;20055;-80
2021/11/08 02:48:03;;;;;;;27.58;8.05;;;7.00;99.90;;;8.03;100.00;100926.59;5092412;28;20436;-80
2021/11/08 02:50:33;;;;;;;25.95;7.75;;;7.00;99.90;;;8.03;100.00;100920.25;5090854;28;20117;-80
2021/11/08 02:53:00;;;;;;;27.25;8.60;;;7.00;99.90;;;8.07;100.00;100912.84;5073667;28;20351;-79
2021/11/08 02:55:28;;;;;;;29.60;8.48;;;7.00;99.90;;;8.08;100.00;100917.28;5092126;28;20555;-80
2021/11/08 02:57:57;;;;;;;28.45;7.95;;;7.00;99.90;;;8.11;100.00;100914.63;5092496;28;20034;-79
2021/11/08 03:00:28;;;;;;;29.98;8.05;;;7.00;99.90;;;8.10;100.00;100920.53;5092515;28;20047;-79
2021/11/08 03:02:55;;;;;;;22.50;8.57;;;7.00;99.90;;;8.11;100.00;100917.41;5074489;28;20043;-79
2021/11/08 03:05:31;;;;;;;31.92;8.98;;;7.10;99.90;;;8.07;100.00;100919.22;5097242;28;20465;-82
2021/11/08 03:07:58;;;;;;;32.65;9.32;;;7.00;99.90;;;8.07;100.00;100922.00;5109322;28;20093;-81
2021/11/08 03:10:30;;;;;;;30.83;9.95;;;7.10;99.90;;;8.11;100.00;100919.38;5053102;28;20033;-79
2021/11/08 03:12:59;;;;;;;33.03;10.32;;;7.10;99.90;;;8.14;100.00;100924.28;5051893;28;20029;-77
2021/11/08 03:15:52;;;;;;;26.73;9.38;;;7.10;99.90;;;8.15;100.00;100923.94;5033865;28;20025;-78
2021/11/08 03:21:18;;;;;;;33.83;9.77;;;7.10;99.90;;;8.15;100.00;100921.16;5041504;28;20063;-78
2021/11/08 03:23:49;;;;;;;35.35;9.60;;;7.10;99.90;;;8.12;100.00;100927.41;5054608;28;20020;-80
2021/11/08 03:26:37;;;;;;;29.85;9.57;;;7.10;99.90;;;8.19;100.00;100936.03;5055134;28;20025;-78
2021/11/08 03:29:04;;;;;;;32.97;10.52;;;7.10;99.90;;;8.02;100.00;100938.91;5037390;28;20029;-79
2021/11/08 03:31:30;;;;;;;30.35;10.27;;;7.10;99.90;;;8.17;100.00;100935.56;5054854;28;20550;-79
2021/11/08 03:33:58;;;;;;;25.13;10.30;;;7.10;99.90;;;8.20;100.00;100934.88;5054868;28;20033;-78
2021/11/08 03:36:24;;;;;;;38.58;10.48;;;7.10;99.90;;;8.17;100.00;100930.00;5037048;28;20033;-78
2021/11/08 03:38:50;;;;;;;26.92;10.55;;;7.10;99.90;;;8.12;100.00;100930.19;5055217;28;20035;-81
2021/11/08 03:41:17;;;;;;;27.75;10.30;;;7.10;99.90;;;7.98;100.00;100935.16;5055850;28;20072;-80
2021/11/08 03:43:45;;;;;;;31.85;10.57;;;7.00;99.90;;;7.99;100.00;100933.19;5037236;28;20098;-81
2021/11/08 03:46:11;;;;;;;33.42;12.77;;;6.90;99.90;;;7.94;100.00;100939.75;5054941;28;20451;-77
2021/11/08 03:48:37;;;;;;;30.52;10.98;;;6.90;99.90;;;7.87;100.00;100934.69;5036954;28;20025;-77
2021/11/08 03:51:04;;;;;;;25.95;11.25;;;6.80;99.90;;;7.81;100.00;100936.03;5054767;28;20170;-78
2021/11/08 03:53:30;;;;;;;30.77;10.93;;;6.80;99.90;;;7.74;100.00;100937.69;5054751;28;20099;-80
2021/11/08 03:55:56;;;;;;;32.95;12.05;;;6.70;99.90;;;7.65;100.00;100945.25;5036663;28;20485;-78
2021/11/08 03:58:22;;;;;;;28.58;10.55;;;6.60;99.90;;;7.59;100.00;100954.91;5054373;28;20087;-80
2021/11/08 04:00:49;;;;;;;27.25;11.70;;;6.60;99.90;;;7.56;100.00;100950.00;5036730;28;20357;-78
2021/11/08 04:03:18;;;;;;;33.63;11.38;;;6.50;99.90;;;7.53;100.00;100954.28;5054315;28;20021;-78
2021/11/08 04:05:45;;;;;;;34.42;12.65;;;6.50;99.90;;;7.50;100.00;100959.66;5019859;28;20039;-79
2021/11/08 04:08:17;;;;;;;34.92;12.70;;;6.50;99.90;;;7.47;100.00;100969.50;5057390;28;20108;-78
2021/11/08 04:10:48;;;;;;;34.63;12.57;;;6.50;99.90;;;7.57;100.00;100974.72;5077121;28;20532;-77
2021/11/08 04:13:15;;;;;;;34.33;13.02;;;6.50;99.90;;;7.59;100.00;100969.63;5076197;28;20031;-77
2021/11/08 04:15:47;;;;;;;37.90;14.45;;;6.60;99.90;;;7.63;100.00;100978.94;5095028;28;20383;-80
2021/11/08 04:18:22;;;;;;;39.08;14.32;;;6.60;99.90;;;7.64;100.00;100972.22;5094262;28;20497;-78
2021/11/08 04:20:52;;;;;;;45.95;14.68;;;6.60;99.90;;;7.62;100.00;100968.16;5076350;28;20025;-78
2021/11/08 04:23:22;;;;;;;43.67;15.65;;;6.60;99.90;;;7.53;100.00;100973.72;5094553;28;20029;-78
2021/11/08 04:25:49;;;;;;;39.35;13.45;;;6.50;99.90;;;7.45;100.00;100966.22;5094811;28;20059;-77
2021/11/08 04:28:15;;;;;;;31.98;11.75;;;6.50;99.90;;;7.37;100.00;100965.09;5094254;28;20043;-77
2021/11/08 04:30:43;;;;;;;32.08;12.57;;;6.40;99.90;;;7.28;100.00;100967.06;5076210;28;20439;-78
2021/11/08 04:33:24;;;;;;;33.08;11.82;;;6.30;99.90;;;7.20;100.00;100961.50;5094112;28;20099;-78
2021/11/08 04:38:40;;;;;;;30.83;12.00;;;6.20;99.90;;;7.14;100.00;100965.59;5078143;28;20031;-79
2021/11/08 04:49:00;;;;;;;41.17;13.27;;;6.00;99.90;;;6.92;100.00;100957.44;5093926;28;20035;-78
2021/11/08 05:31:44;;;;;;;49.25;15.40;;;5.70;99.90;;;6.63;100.00;100981.09;5074038;28;20039;-78
2021/11/08 05:34:10;;;;;;;46.92;14.90;;;5.70;99.90;;;6.62;100.00;100975.84;5055325;28;20032;-82
2021/11/08 05:36:37;;;;;;;53.15;15.65;;;5.70;99.90;;;6.62;100.00;100985.00;5054814;28;20036;-80
2021/11/08 05:39:05;;;;;;;51.20;15.80;;;5.70;99.90;;;6.62;100.00;100985.00;5073166;28;20028;-78
2021/11/08 05:41:34;;;;;;;45.92;16.83;;;5.70;99.90;;;6.63;100.00;100994.13;5073248;28;20032;-79
2021/11/08 05:44:03;;;;;;;49.60;15.32;;;5.60;99.90;;;6.64;100.00;100993.84;5054831;28;20035;-81
2021/11/08 05:46:32;;;;;;;47.83;15.95;;;5.70;99.90;;;6.65;100.00;101005.72;5072575;28;20036;-79
2021/11/08 05:48:58;;;;;;;51.13;15.65;;;5.60;99.90;;;6.67;100.00;101000.69;5037706;28;20131;-79
2021/11/08 05:51:24;;;;;;;50.75;16.48;;;5.70;99.90;;;6.67;100.00;101000.69;5072253;28;20056;-79
2021/11/08 05:53:51;;;;;;;45.78;15.23;;;5.70;99.90;;;6.65;100.00;100998.22;5072325;28;20025;-79
2021/11/08 05:56:26;;;;;;;38.58;13.52;;;5.70;99.90;;;6.65;100.00;101002.94;5054422;28;20569;-78
2021/11/08 05:59:25;;;;;;;43.70;16.17;;;5.70;99.90;;;6.63;100.00;101002.47;5072292;28;20025;-80
2021/11/08 06:49:09;;;;;;;57.47;17.25;;;5.60;99.90;;;6.55;100.00;101051.25;5093035;28;20038;-80
2021/11/08 06:51:29;;;;;;;56.42;17.15;;;5.60;99.90;;;6.61;100.00;101060.28;5097804;28;20043;-78
2021/11/08 06:54:00;;;;;;;56.08;17.58;;;5.60;99.90;;;6.61;100.00;101052.75;5097453;28;20020;-79
2021/11/08 06:56:29;;;;;;;40.65;14.70;;;5.60;99.90;;;6.64;100.00;101054.06;5097886;28;20103;-80
2021/11/08 06:58:58;;;;;;;49.22;15.85;;;5.70;99.90;;;6.63;100.00;101056.03;5098462;28;20034;-79
2021/11/08 07:01:28;;;;;;;52.85;17.95;;;5.70;99.90;;;6.62;100.00;101057.16;5098313;28;20063;-78
2021/11/08 07:03:54;;;;;;;47.63;14.60;;;5.70;99.90;;;6.65;100.00;101061.22;5097229;28;20056;-82
2021/11/08 07:06:22;;;;;;;55.38;16.27;;;5.70;99.90;;;6.65;100.00;101064.84;5098374;28;20092;-81
2021/11/08 07:08:48;;;;;;;47.97;15.38;;;5.70;99.90;;;6.68;100.00;101066.97;5107853;28;20039;-77
2021/11/08 07:11:14;;;;;;;43.22;15.27;;;5.70;99.90;;;6.72;100.00;101067.13;5097165;28;20044;-80
2021/11/08 07:13:40;;;;;;;50.10;14.68;;;5.70;99.90;;;6.75;100.00;101075.66;5065183;28;20017;-80
2021/11/08 07:16:05;;;;;;;54.50;16.92;;;5.70;99.90;;;6.77;100.00;101075.34;5077078;28;20506;-77
2021/11/08 07:18:31;;;;;;;47.15;14.80;;;5.70;99.90;;;6.85;100.00;101080.09;5077347;28;20044;-77
2021/11/08 07:20:57;;;;;;;48.78;16.27;;;5.80;99.90;;;7.03;100.00;101084.53;5080913;28;20028;-80
2021/11/08 07:23:23;;;;;;;50.33;15.35;;;6.00;99.90;;;7.30;100.00;101087.03;5062388;28;20033;-81
2021/11/08 07:25:48;;;;;;;49.03;16.02;;;6.10;99.90;;;7.49;100.00;101088.66;5078311;28;20070;-80
2021/11/08 07:28:15;;;;;;;44.75;13.98;;;6.30;99.90;;;7.74;100.00;101088.66;5077326;28;20048;-79
2021/11/08 07:30:44;;;;;;;45.90;14.63;;;6.50;99.90;;;7.87;100.00;101098.78;5059495;28;20036;-79
2021/11/08 07:33:11;;;;;;;45.90;14.02;;;6.70;99.90;;;8.06;100.00;101101.19;5077280;28;20502;-78
2021/11/08 07:35:37;;;;;;;51.40;13.95;;;6.80;99.90;;;8.21;100.00;101097.09;5077472;28;20031;-79
2021/11/08 07:38:03;;;;;;;47.53;12.88;;;7.00;99.90;;;8.30;100.00;101107.09;5058504;28;20028;-79
2021/11/08 07:40:31;;;;;;;37.63;12.93;;;7.10;99.90;;;8.42;100.00;101098.84;5076933;28;20394;-80
2021/11/08 07:42:56;;;;;;;33.15;11.05;;;7.20;99.90;;;8.60;100.00;101101.56;5077145;28;20135;-79
2021/11/08 07:45:24;;;;;;;40.60;12.68;;;7.40;99.90;;;8.79;100.00;101101.97;5076395;28;20063;-79
2021/11/08 07:47:52;;;;;;;37.45;11.63;;;7.60;99.90;;;8.89;100.00;101105.19;5075898;28;20031;-78
2021/11/08 07:50:18;;;;;;;28.55;10.25;;;7.70;99.90;;;9.06;100.00;101109.84;5058266;28;20029;-78
2021/11/08 07:52:44;;;;;;;32.33;10.45;;;7.80;99.90;;;9.21;100.00;101105.69;5075867;28;20032;-77
2021/11/08 07:55:10;;;;;;;36.13;11.18;;;8.00;99.90;;;9.31;100.00;101113.66;5057780;28;20503;-78
2021/11/08 07:57:39;;;;;;;26.48;9.10;;;8.10;99.90;;;9.53;100.00;101114.09;5075908;28;20127;-80
2021/11/08 08:00:08;;;;;;;27.75;10.02;;;8.30;99.90;;;9.77;100.00;101112.59;5076290;28;20129;-80
2021/11/08 08:02:35;;;;;;;27.55;9.68;;;8.40;99.90;;;9.96;100.00;101118.50;5057523;28;20063;-80
2021/11/08 08:05:01;;;;;;;32.42;9.60;;;8.60;99.90;;;9.98;100.00;101110.63;5076113;28;20041;-79
2021/11/08 08:07:27;;;;;;;24.95;8.77;;;8.70;99.90;;;9.99;100.00;101118.63;5076661;28;20055;-79
2021/11/08 08:09:54;;;;;;;27.85;7.97;;;8.80;99.90;;;10.20;100.00;101117.81;5093427;28;20116;-80
2021/11/08 08:12:21;;;;;;;29.33;9.05;;;9.00;99.90;;;10.45;98.88;101116.72;5097347;28;20028;-80
2021/11/08 08:14:47;;;;;;;23.83;7.75;;;9.20;99.90;;;10.44;98.46;101118.69;5096458;28;20297;-80
2021/11/08 08:17:13;;;;;;;24.13;7.68;;;9.30;99.90;;;10.72;97.28;101132.84;5078190;28;20475;-78
2021/11/08 08:19:39;;;;;;;26.42;8.68;;;9.40;99.90;;;10.75;96.87;101128.53;5077871;28;20120;-76
2021/11/08 08:22:06;;;;;;;22.15;7.95;;;9.50;99.90;;;10.88;95.41;101138.56;5096261;28;20064;-80
2021/11/08 08:24:32;;;;;;;25.10;8.48;;;9.70;99.90;;;11.14;95.42;101141.81;5078592;28;20546;-78
2021/11/08 08:27:03;;;;;;;30.45;9.02;;;9.90;99.90;;;11.44;92.88;101137.56;5078219;28;20059;-79
2021/11/08 08:29:32;;;;;;;30.17;7.90;;;10.20;99.90;;;11.96;92.48;101150.78;5061846;28;20456;-80
2021/11/08 08:31:58;;;;;;;25.90;8.52;;;10.50;99.90;;;12.19;90.21;101154.66;5078199;28;20024;-83
2021/11/08 08:34:29;;;;;;;27.20;8.20;;;10.80;99.90;;;12.38;90.05;101157.59;5096929;28;20417;-81
2021/11/08 08:36:58;;;;;;;23.33;7.72;;;11.00;99.90;;;12.11;87.81;101164.00;5097889;28;20094;-82
2021/11/08 08:39:25;;;;;;;35.92;8.80;;;10.90;99.90;;;11.86;89.29;101163.28;5077911;28;20115;-76
2021/11/08 08:41:52;;;;;;;28.45;8.63;;;10.70;99.90;;;11.47;91.19;101166.81;5077184;28;20115;-76
2021/11/08 08:44:19;;;;;;;30.65;9.68;;;10.40;99.90;;;11.24;91.27;101160.09;5095254;28;20036;-79
2021/11/08 08:46:47;;;;;;;27.73;8.35;;;10.20;99.90;;;10.96;94.23;101162.75;5073686;28;20411;-78
2021/11/08 08:49:17;;;;;;;29.45;8.68;;;9.90;99.90;;;10.84;95.62;101155.19;5076571;28;20541;-79
2021/11/08 08:51:44;;;;;;;22.02;8.05;;;9.80;99.90;;;10.80;95.55;101164.59;5094996;28;20035;-79
2021/11/08 08:54:12;;;;;;;33.83;7.88;;;9.70;99.90;;;10.62;96.15;101166.81;5076280;28;20113;-79
2021/11/08 08:56:38;;;;;;;34.50;8.23;;;9.50;99.90;;;10.53;97.60;101164.09;5095748;28;20191;-80
2021/11/08 08:59:05;;;;;;;24.38;7.75;;;9.50;99.90;;;10.58;96.92;101165.84;5096196;28;20024;-80
2021/11/08 09:01:31;;;;;;;20.73;7.97;;;9.50;99.90;;;10.56;97.44;101160.59;5095634;28;20518;-79
2021/11/08 09:03:59;;;;;;;34.28;8.05;;;9.40;99.90;;;10.58;97.84;101165.84;5096399;28;20028;-79
2021/11/08 09:06:27;;;;;;;28.38;7.88;;;9.40;99.90;;;10.63;98.68;101173.22;5096083;28;20024;-79
2021/11/08 09:08:55;;;;;;;23.63;7.15;;;9.40;99.90;;;10.87;97.83;101179.66;5054028;28;20547;-80
2021/11/08 09:11:24;;;;;;;25.45;7.82;;;9.60;99.90;;;11.45;97.15;101180.34;5058164;28;20503;-80
2021/11/08 09:13:53;;;;;;;22.45;7.57;;;10.00;99.90;;;11.96;95.09;101193.56;5057567;28;20106;-79
2021/11/08 09:16:19;;;;;;;32.28;8.88;;;10.50;99.90;;;11.81;92.17;101185.94;5058858;28;20028;-79
2021/11/08 09:18:54;;;;;;;24.42;7.53;;;10.50;99.90;;;11.75;92.73;101184.53;5076002;28;20025;-78
2021/11/08 09:21:25;;;;;;;30.10;8.02;;;10.50;99.90;;;11.81;91.90;101183.13;5058695;28;20510;-78
2021/11/08 09:23:55;;;;;;;28.23;7.65;;;10.50;99.90;;;11.97;92.22;101186.00;5057655;28;20558;-78
2021/11/08 09:26:26;;;;;;;21.75;7.75;;;10.60;99.90;;;11.97;92.46;101191.59;5040061;28;20040;-76
2021/11/08 09:28:53;;;;;;;23.45;6.60;;;10.60;99.90;;;12.02;92.50;101180.97;5040982;28;20028;-81
2021/11/08 09:31:20;;;;;;;26.50;7.35;;;10.70;99.90;;;11.83;92.87;101191.16;5073035;28;20028;-79
2021/11/08 09:33:54;;;;;;;24.50;7.72;;;10.60;99.90;;;11.69;92.29;101199.88;5055051;28;20025;-78
2021/11/08 09:36:20;;;;;;;21.25;7.43;;;10.50;99.90;;;11.49;92.85;101193.28;5055401;28;20062;-78
2021/11/08 09:38:54;;;;;;;26.27;8.30;;;10.30;99.90;;;11.39;93.40;101192.94;5055620;28;20491;-80
2021/11/08 09:41:25;;;;;;;25.52;7.75;;;10.20;99.90;;;11.54;94.14;101201.44;5073537;28;20027;-76
2021/11/08 09:43:56;;;;;;;21.67;6.78;;;10.40;99.90;;;12.18;93.06;101206.22;5056518;28;20140;-78
2021/11/08 09:46:23;;;;;;;28.58;8.18;;;10.80;99.90;;;13.00;89.79;101198.09;5055981;28;20033;-78
2021/11/08 09:48:53;;;;;;;22.95;8.00;;;11.40;99.90;;;13.31;86.86;101200.91;5055758;28;20115;-79
2021/11/08 09:51:20;;;;;;;23.40;7.53;;;11.80;99.90;;;13.91;84.05;101207.94;5077733;22;20131;-81
2021/11/08 09:53:46;;;;;;;29.45;7.63;;;12.30;99.90;;;14.04;82.79;101203.81;5065515;28;20029;-80
2021/11/08 09:56:14;;;;;;;22.65;7.78;;;12.60;99.90;;;14.22;80.22;101192.97;5068461;28;20047;-82
2021/11/08 09:58:40;;;;;;;19.05;5.88;;;12.80;99.90;;;14.51;78.95;101205.63;5065354;28;20025;-81
2021/11/08 10:01:14;;;;;;;27.50;6.40;;;13.00;99.90;;;14.71;77.23;101208.03;5068086;28;20523;-79
2021/11/08 10:03:46;;;;;;;22.65;6.93;;;13.10;99.90;;;14.48;75.89;101204.34;5083686;28;20251;-82
2021/11/08 10:06:13;;;;;;;25.17;6.38;;;13.10;99.90;;;14.29;77.29;101201.53;5068448;28;20024;-80
2021/11/08 10:08:41;;;;;;;26.08;7.60;;;13.10;99.90;;;14.55;76.47;101200.88;5091426;28;20016;-83
2021/11/08 10:11:13;;;;;;;22.05;6.03;;;13.20;99.90;;;14.45;76.66;101199.47;5108440;28;20043;-80
2021/11/08 10:13:42;;;;;;;30.17;7.78;;;13.10;99.90;;;13.67;77.91;101202.59;5107616;28;20365;-81
2021/11/08 10:16:19;;;;;;;25.02;7.78;;;12.50;99.90;;;12.82;83.04;101210.81;5074147;28;20028;-79
2021/11/08 10:18:55;;;;;;;20.02;6.57;;;11.80;99.90;;;12.36;87.50;101207.53;5092342;28;20028;-81
2021/11/08 10:21:32;;;;;;;;;;;11.30;99.90;;;11.86;90.17;101208.06;5107273;28;20038;-83
2021/11/08 10:24:08;;;;;;;24.92;8.45;;;10.90;99.90;;;11.66;91.67;101214.59;5107850;28;19908;-81
2021/11/08 10:26:37;;;;;;;28.25;8.63;;;10.60;99.90;;;11.59;93.58;101208.78;5105220;28;20149;-82
2021/11/08 10:29:17;;;;;;;27.05;9.38;;;10.40;99.90;;;11.42;96.54;101201.47;5099879;28;20034;-81
2021/11/08 10:32:03;;;;;;;30.33;8.93;;;10.40;99.90;;;11.29;96.04;101191.44;5083347;28;20036;-82
2021/11/08 10:34:29;;;;;;;28.10;8.80;;;10.20;99.90;;;11.36;95.44;101191.69;5097255;28;20036;-83
2021/11/08 10:37:07;;;;;;;28.40;8.07;;;10.20;99.90;;;11.18;93.84;101186.66;5096699;28;20123;-83
2021/11/08 10:39:39;;;;;;;24.38;8.60;;;10.10;99.90;;;11.24;94.48;101182.47;5098837;28;20099;-82
2021/11/08 10:42:07;;;;;;;27.05;8.05;;;10.00;99.90;;;10.97;94.54;101182.00;5079351;28;20058;-82
2021/11/08 10:44:35;;;;;;;16.67;6.15;;;10.00;99.90;;;11.09;92.98;101186.75;5097840;28;20483;-81
2021/11/08 10:47:09;;;;;;;21.85;7.25;;;9.90;99.90;;;11.30;92.50;101186.66;5096692;28;20040;-82
2021/11/08 10:49:43;;;;;;;18.27;5.07;;;10.00;99.90;;;11.29;91.51;101187.81;5096844;28;20028;-81
2021/11/08 10:52:14;;;;;;;14.57;5.15;;;10.00;99.90;;;11.31;91.41;101189.09;5078465;28;20036;-80
2021/11/08 10:54:53;;;;;;;18.85;5.03;;;10.00;99.90;;;11.63;91.11;101181.72;5096708;28;20383;-82
2021/11/08 10:57:25;;;;;;;18.35;4.95;;;10.30;99.90;;;12.39;90.12;101192.84;5096711;28;20447;-79
2021/11/08 10:59:55;;;;;;;13.02;4.50;;;10.80;99.90;;;13.07;86.98;101193.47;5096330;28;20047;-82
2021/11/08 11:02:31;;;;;;;19.55;4.70;;;11.40;99.90;;;13.44;83.24;101182.78;5098596;28;20024;-83
2021/11/08 11:05:11;;;;;;;15.60;5.15;;;11.80;99.90;;;13.73;81.08;101184.25;5096653;28;20204;-85
2021/11/08 11:07:41;;;;;;;22.17;6.15;;;12.20;99.90;;;13.92;80.73;101183.47;5098114;28;20032;-79
2021/11/08 11:10:19;;;;;;;18.70;5.15;;;12.40;99.90;;;13.87;81.14;101186.59;5080646;28;20088;-83
2021/11/08 11:12:51;;;;;;;17.00;5.25;;;12.50;99.90;;;14.25;79.68;101189.41;5045038;28;20036;-83
2021/11/08 11:15:32;;;;;;;23.52;5.47;;;12.70;99.90;;;14.47;78.93;101199.13;5076503;28;20040;-81
2021/11/08 11:18:01;;;;;;;18.35;6.18;;;12.80;99.90;;;14.27;76.84;101182.25;5061021;28;20035;-82
2021/11/08 11:20:35;;;;;;;21.50;5.60;;;12.90;99.90;;;14.37;77.87;101199.72;5093477;28;20021;-82
2021/11/08 11:23:13;;;;;;;26.92;6.30;;;13.00;99.90;;;14.31;78.57;101192.75;5078632;28;20075;-82
2021/11/08 11:25:53;;;;;;;23.80;6.65;;;12.90;99.90;;;14.02;79.96;101203.38;5078429;28;20044;-81
2021/11/08 11:28:36;;;;;;;26.70;6.50;;;12.80;99.90;;;14.19;79.08;101190.91;5093812;28;20067;-81
2021/11/08 11:31:21;;;;;;;23.02;7.15;;;12.90;99.90;;;14.64;80.24;101191.00;5078057;28;20032;-81
2021/11/08 11:33:54;;;;;;;25.40;7.47;;;13.10;99.90;;;14.77;76.81;101200.91;5077677;28;20041;-85
2021/11/08 11:36:23;;;;;;;24.10;6.97;;;13.30;99.90;;;14.36;78.56;101198.06;5077882;28;20085;-82
2021/11/08 11:39:03;;;;;;;25.40;7.82;;;13.10;99.90;;;14.21;78.54;101194.97;5065303;28;20066;-83
2021/11/08 11:41:37;;;;;;;21.98;6.82;;;12.90;99.90;;;14.12;80.19;101197.19;5065951;28;20039;-82
2021/11/08 11:44:24;;;;;;;24.00;6.47;;;12.70;99.90;;;13.92;81.29;101192.72;5082982;28;20046;-82
2021/11/08 11:46:56;;;;;;;21.60;6.80;;;12.50;99.90;;;13.73;81.06;101192.69;5067657;28;20068;-81
2021/11/08 11:49:24;;;;;;;21.88;7.30;;;12.40;99.90;;;13.41;81.35;101199.53;5050037;28;20071;-81
2021/11/08 11:51:59;;;;;;;23.08;6.53;;;12.10;99.90;;;13.26;82.31;101191.97;5083118;28;20523;-81
2021/11/08 11:54:32;;;;;;;18.65;6.88;;;12.00;99.90;;;13.23;82.76;101195.50;5082353;28;20046;-82
2021/11/08 11:57:01;;;;;;;28.73;6.70;;;11.90;99.90;;;13.27;81.79;101191.59;5082938;28;20032;-81
2021/11/08 11:59:29;;;;;;;27.92;7.00;;;12.00;99.90;;;13.15;81.54;101198.13;5083546;28;20032;-82
2021/11/08 12:01:55;;;;;;;19.45;6.25;;;11.80;99.90;;;13.05;84.29;101195.81;5081974;28;20076;-82
2021/11/08 12:04:22;;;;;;;24.38;7.32;;;11.80;99.90;;;13.09;84.30;101193.97;5080781;28;20029;-83